Time;durP1;ratioP1;P1;durP2;ratioP2;P2;SDS_P1;SDS_P2;PMS_P1;PMS_P2;Temp;Humidity;BMP_temperature;BMP_pressure;BME280_temperature;BME280_humidity;BME280_pressure;Samples;Min_cycle;Max_cycle;Signal;HPM_P1;HPM_P2
2023/11/29 00:02:13;;;;;;;10.20;4.47;;;1.30;99.90;;;;;;5054971;28;20025;-53
2023/11/29 00:04:38;;;;;;;9.30;3.73;;;1.30;99.90;;;;;;5054625;28;20095;-54
2023/11/29 00:07:04;;;;;;;6.67;3.43;;;1.30;99.90;;;;;;5054882;28;20035;-51
2023/11/29 00:09:29;;;;;;;8.63;4.30;;;1.30;99.90;;;;;;5054727;28;20115;-52
2023/11/29 00:11:55;;;;;;;9.30;3.73;;;1.30;99.90;;;;;;5054919;28;20021;-53
2023/11/29 00:14:21;;;;;;;8.67;4.23;;;1.30;99.90;;;;;;5054573;28;20446;-49
2023/11/29 00:16:46;;;;;;;8.90;4.37;;;1.40;99.90;;;;;;5054712;28;20064;-52
2023/11/29 00:19:12;;;;;;;9.07;3.77;;;1.40;99.90;;;;;;5054480;28;20035;-52
2023/11/29 00:21:41;;;;;;;11.53;4.07;;;1.40;99.90;;;;;;5054534;28;20029;-53
2023/11/29 00:24:07;;;;;;;10.95;4.15;;;1.40;99.90;;;;;;5054505;28;20094;-51
2023/11/29 00:26:33;;;;;;;10.27;3.23;;;1.40;99.90;;;;;;5054635;28;20021;-53
2023/11/29 00:28:59;;;;;;;11.90;3.60;;;1.40;99.90;;;;;;5054237;28;20033;-52
2023/11/29 00:31:24;;;;;;;9.47;4.27;;;1.40;99.90;;;;;;5054506;28;20044;-53
2023/11/29 00:33:51;;;;;;;8.77;3.90;;;1.50;99.90;;;;;;5052863;28;20439;-53
2023/11/29 00:36:16;;;;;;;10.70;4.20;;;1.50;99.90;;;;;;5054459;28;20037;-54
2023/11/29 00:38:43;;;;;;;8.53;4.00;;;1.50;99.90;;;;;;5054095;28;20500;-53
2023/11/29 00:41:08;;;;;;;11.57;4.53;;;1.50;99.90;;;;;;5054232;28;20032;-52
2023/11/29 00:43:37;;;;;;;8.27;3.50;;;1.40;99.90;;;;;;5053997;28;20021;-52
2023/11/29 00:46:04;;;;;;;12.18;4.53;;;1.50;99.90;;;;;;5052849;28;20104;-50
2023/11/29 00:48:30;;;;;;;9.60;3.47;;;1.50;99.90;;;;;;5053981;28;20416;-51
2023/11/29 00:50:57;;;;;;;9.27;3.80;;;1.50;99.90;;;;;;5052567;28;20087;-52
2023/11/29 00:53:22;;;;;;;9.40;3.80;;;1.50;99.90;;;;;;5051762;28;20040;-55
2023/11/29 00:55:48;;;;;;;8.33;3.27;;;1.50;99.90;;;;;;5052538;28;20037;-55
2023/11/29 00:58:14;;;;;;;10.13;3.83;;;1.50;99.90;;;;;;5053950;28;20029;-54
2023/11/29 01:00:39;;;;;;;9.40;3.43;;;1.50;99.90;;;;;;5052477;28;20144;-54
2023/11/29 01:03:05;;;;;;;8.90;4.10;;;1.50;99.90;;;;;;5053805;28;20025;-55
2023/11/29 01:05:31;;;;;;;9.67;4.43;;;1.50;99.90;;;;;;5052946;28;20439;-55
2023/11/29 01:07:56;;;;;;;9.40;3.83;;;1.50;99.90;;;;;;5051637;28;20033;-54
2023/11/29 01:10:22;;;;;;;8.67;3.70;;;1.40;99.90;;;;;;5053395;28;20075;-54
2023/11/29 01:12:48;;;;;;;8.33;3.93;;;1.50;99.90;;;;;;5052279;28;20059;-50
2023/11/29 01:15:14;;;;;;;10.47;4.10;;;1.50;99.90;;;;;;5052134;28;20064;-54
2023/11/29 01:17:39;;;;;;;9.63;3.63;;;1.50;99.90;;;;;;5053579;28;20029;-54
2023/11/29 01:20:06;;;;;;;7.50;3.70;;;1.50;99.90;;;;;;5052085;28;20029;-49
2023/11/29 01:22:33;;;;;;;8.10;3.67;;;1.50;99.90;;;;;;5052197;28;20025;-51
2023/11/29 01:24:59;;;;;;;11.50;4.03;;;1.50;99.90;;;;;;5051830;28;20029;-51
2023/11/29 01:27:29;;;;;;;8.70;3.07;;;1.50;99.90;;;;;;5052134;28;20029;-52
2023/11/29 01:29:54;;;;;;;8.23;3.80;;;1.50;99.90;;;;;;5051893;28;20393;-49
2023/11/29 01:32:20;;;;;;;7.90;3.07;;;1.40;99.90;;;;;;5051938;28;20029;-52
2023/11/29 01:34:45;;;;;;;7.97;3.40;;;1.40;99.90;;;;;;5053181;28;20029;-54
2023/11/29 01:37:13;;;;;;;9.73;3.90;;;1.40;99.90;;;;;;5051074;28;20371;-54
2023/11/29 01:39:44;;;;;;;10.67;3.67;;;1.20;99.90;;;;;;5053064;28;20104;-52
2023/11/29 01:42:11;;;;;;;7.63;3.50;;;1.30;99.90;;;;;;5053211;28;20029;-53
2023/11/29 01:44:36;;;;;;;8.43;3.37;;;1.30;99.90;;;;;;5052974;28;20033;-53
2023/11/29 01:47:12;;;;;;;7.70;3.53;;;1.30;99.90;;;;;;5051687;28;20029;-50
2023/11/29 01:49:39;;;;;;;7.43;3.20;;;1.30;99.90;;;;;;5052810;28;20024;-53
2023/11/29 01:52:05;;;;;;;9.13;2.80;;;1.30;99.90;;;;;;5051565;28;20025;-54
2023/11/29 01:54:31;;;;;;;7.40;3.77;;;1.30;99.90;;;;;;5052733;28;20039;-51
2023/11/29 01:56:57;;;;;;;8.77;3.37;;;1.30;99.90;;;;;;5051493;28;20125;-53
2023/11/29 01:59:23;;;;;;;8.90;3.37;;;1.30;99.90;;;;;;5051267;28;20517;-52
2023/11/29 02:01:48;;;;;;;8.60;3.40;;;1.30;99.90;;;;;;5051236;28;20039;-50
2023/11/29 02:04:14;;;;;;;9.13;3.60;;;1.30;99.90;;;;;;5050887;28;20435;-53
2023/11/29 02:06:41;;;;;;;7.70;3.60;;;1.20;99.90;;;;;;5051130;28;20037;-52
2023/11/29 02:09:08;;;;;;;9.50;3.50;;;1.20;99.90;;;;;;5051064;28;20025;-50
2023/11/29 02:11:39;;;;;;;9.73;3.83;;;1.20;99.90;;;;;;5052653;28;20021;-53
2023/11/29 02:14:06;;;;;;;8.90;3.40;;;1.20;99.90;;;;;;5051265;28;20033;-52
2023/11/29 02:16:32;;;;;;;11.53;3.87;;;1.20;99.90;;;;;;5052776;28;20343;-51
2023/11/29 02:18:57;;;;;;;9.53;3.60;;;1.10;99.90;;;;;;5051053;28;20078;-49
2023/11/29 02:21:24;;;;;;;11.00;3.73;;;1.10;99.90;;;;;;5050893;28;20393;-51
2023/11/29 02:24:07;;;;;;;9.20;3.50;;;1.20;99.90;;;;;;5050808;28;20075;-49
2023/11/29 02:26:32;;;;;;;9.73;3.67;;;1.20;99.90;;;;;;5052387;28;20039;-52
2023/11/29 02:28:58;;;;;;;13.77;3.97;;;1.20;99.90;;;;;;5052199;28;20033;-51
2023/11/29 02:31:23;;;;;;;10.17;3.50;;;1.20;99.90;;;;;;5050851;28;20462;-54
2023/11/29 02:33:50;;;;;;;9.97;3.60;;;1.20;99.90;;;;;;5051446;28;20116;-51
2023/11/29 02:36:16;;;;;;;9.00;3.43;;;1.20;99.90;;;;;;5050629;28;20053;-48
2023/11/29 02:38:41;;;;;;;7.67;3.23;;;1.30;99.90;;;;;;5050069;28;20509;-49
2023/11/29 02:41:07;;;;;;;11.53;3.93;;;1.40;99.90;;;;;;5052038;28;20039;-49
2023/11/29 02:43:33;;;;;;;8.80;4.07;;;1.50;99.90;;;;;;5050637;28;20393;-49
2023/11/29 02:45:59;;;;;;;10.37;3.87;;;1.50;99.90;;;;;;5033734;28;20025;-49
2023/11/29 02:48:24;;;;;;;8.93;3.80;;;1.50;99.90;;;;;;5052099;28;20480;-50
2023/11/29 02:50:50;;;;;;;10.47;4.30;;;1.50;99.90;;;;;;5034012;28;20101;-49
2023/11/29 02:53:15;;;;;;;8.33;3.53;;;1.60;99.90;;;;;;5052009;28;20029;-48
2023/11/29 02:55:41;;;;;;;10.03;4.43;;;1.60;99.90;;;;;;5050496;28;20036;-48
2023/11/29 02:58:06;;;;;;;11.03;4.47;;;1.70;99.90;;;;;;5050862;28;20064;-49
2023/11/29 03:00:32;;;;;;;9.10;3.90;;;1.70;99.90;;;;;;5050637;28;20550;-49
2023/11/29 03:02:58;;;;;;;10.53;4.10;;;1.70;99.90;;;;;;5050514;28;20068;-49
2023/11/29 03:05:24;;;;;;;13.93;3.90;;;1.70;99.90;;;;;;5050411;28;20033;-49
2023/11/29 03:07:49;;;;;;;7.90;3.70;;;1.70;99.90;;;;;;5050557;28;20032;-49
2023/11/29 03:10:15;;;;;;;13.93;4.77;;;1.70;99.90;;;;;;5051636;28;20024;-53
2023/11/29 03:12:41;;;;;;;11.57;4.63;;;1.70;99.90;;;;;;5051901;28;20370;-52
2023/11/29 03:15:08;;;;;;;11.27;4.30;;;1.70;99.90;;;;;;5050456;28;20033;-52
2023/11/29 03:17:34;;;;;;;11.73;4.50;;;1.80;99.90;;;;;;5055511;28;20025;-52
2023/11/29 03:20:00;;;;;;;12.30;4.63;;;1.70;99.90;;;;;;5054435;28;20029;-49
2023/11/29 03:22:26;;;;;;;12.00;4.70;;;1.80;99.90;;;;;;5054354;28;20035;-50
2023/11/29 03:24:52;;;;;;;9.83;4.50;;;1.80;99.90;;;;;;5055410;28;20489;-49
2023/11/29 03:27:19;;;;;;;13.47;4.87;;;1.80;99.90;;;;;;5055792;28;20027;-48
2023/11/29 03:29:45;;;;;;;10.80;4.47;;;1.90;99.90;;;;;;5054069;28;20473;-50
2023/11/29 03:32:10;;;;;;;13.53;4.90;;;1.90;99.90;;;;;;5055649;28;20091;-54
2023/11/29 03:34:36;;;;;;;14.30;4.77;;;1.80;99.90;;;;;;5054034;28;20045;-54
2023/11/29 03:37:02;;;;;;;11.70;4.97;;;1.60;99.90;;;;;;5053949;28;20036;-52
2023/11/29 03:39:27;;;;;;;15.70;5.27;;;1.50;99.90;;;;;;5055310;28;20029;-53
2023/11/29 03:41:53;;;;;;;13.70;5.40;;;1.40;99.90;;;;;;5055419;28;20036;-54
2023/11/29 03:44:18;;;;;;;15.77;6.13;;;1.30;99.90;;;;;;5055189;28;20036;-54
2023/11/29 03:46:44;;;;;;;12.90;5.07;;;1.20;99.90;;;;;;5055438;28;20028;-51
2023/11/29 03:49:10;;;;;;;12.43;5.53;;;1.20;99.90;;;;;;5037353;28;20073;-54
2023/11/29 03:51:35;;;;;;;13.97;4.97;;;1.10;99.90;;;;;;5053761;28;20025;-53
2023/11/29 03:54:01;;;;;;;12.87;5.00;;;1.00;99.90;;;;;;5054956;28;20542;-54
2023/11/29 03:56:27;;;;;;;13.27;5.97;;;1.00;99.90;;;;;;5053819;28;20470;-50
2023/11/29 03:58:52;;;;;;;12.30;5.03;;;1.00;99.90;;;;;;5055045;28;20029;-52
2023/11/29 04:01:18;;;;;;;14.07;5.77;;;1.00;99.90;;;;;;5053628;28;20036;-53
2023/11/29 04:03:43;;;;;;;14.43;5.67;;;1.00;99.90;;;;;;5053424;28;20037;-52
2023/11/29 04:06:09;;;;;;;16.07;6.07;;;1.00;99.90;;;;;;5054963;28;20032;-53
2023/11/29 04:08:35;;;;;;;13.47;5.43;;;0.90;99.90;;;;;;5054763;28;20036;-52
2023/11/29 04:11:02;;;;;;;13.67;5.27;;;0.90;99.90;;;;;;5053375;28;20021;-50
2023/11/29 04:13:27;;;;;;;17.97;5.53;;;0.80;99.90;;;;;;5053329;28;20156;-52
2023/11/29 04:15:53;;;;;;;14.40;5.70;;;0.80;99.90;;;;;;5053253;28;20033;-50
2023/11/29 04:18:20;;;;;;;14.40;5.47;;;0.80;99.90;;;;;;5053363;28;20160;-48
2023/11/29 04:20:46;;;;;;;13.47;5.13;;;0.80;99.90;;;;;;5053222;28;20135;-48
2023/11/29 04:23:11;;;;;;;13.53;5.57;;;0.80;99.90;;;;;;5053099;28;20035;-50
2023/11/29 04:25:37;;;;;;;12.20;4.87;;;0.80;99.90;;;;;;5054457;28;20025;-49
2023/11/29 04:28:03;;;;;;;15.03;5.37;;;0.80;99.90;;;;;;5051702;28;20448;-55
2023/11/29 04:30:29;;;;;;;13.67;5.40;;;0.90;99.90;;;;;;5053033;28;20029;-52
2023/11/29 04:32:55;;;;;;;17.00;5.67;;;0.90;99.90;;;;;;5053101;28;20048;-51
2023/11/29 04:35:20;;;;;;;11.17;4.83;;;0.90;99.90;;;;;;5054328;28;20025;-51
2023/11/29 04:37:46;;;;;;;13.63;5.97;;;0.90;99.90;;;;;;5053810;28;20136;-50
2023/11/29 04:40:12;;;;;;;19.37;6.60;;;0.90;99.90;;;;;;5052762;28;20053;-50
2023/11/29 04:42:37;;;;;;;13.70;5.80;;;0.90;99.90;;;;;;5054311;28;20473;-51
2023/11/29 04:45:03;;;;;;;14.77;4.97;;;0.90;99.90;;;;;;5052791;28;20052;-52
2023/11/29 04:47:29;;;;;;;13.20;5.40;;;0.90;99.90;;;;;;5052758;28;20055;-49
2023/11/29 04:49:55;;;;;;;16.87;6.30;;;0.90;99.90;;;;;;5053973;28;20123;-53
2023/11/29 04:52:20;;;;;;;12.67;5.13;;;0.90;99.90;;;;;;5054221;28;20025;-50
2023/11/29 04:54:46;;;;;;;12.23;5.03;;;1.00;99.90;;;;;;5054004;28;20033;-54
2023/11/29 04:57:11;;;;;;;15.33;4.83;;;1.00;99.90;;;;;;5054050;28;20028;-53
2023/11/29 04:59:38;;;;;;;16.13;6.00;;;0.90;99.90;;;;;;5053913;28;20037;-54
2023/11/29 05:02:05;;;;;;;19.57;6.20;;;1.00;99.90;;;;;;5044767;28;20400;-48
2023/11/29 05:04:31;;;;;;;14.07;5.77;;;0.90;99.90;;;;;;5046495;28;20032;-52
2023/11/29 05:06:56;;;;;;;15.40;5.80;;;1.00;99.90;;;;;;5051749;28;20381;-52
2023/11/29 05:09:22;;;;;;;15.87;6.33;;;1.00;99.90;;;;;;5058638;28;20025;-50
2023/11/29 05:11:47;;;;;;;18.70;6.13;;;1.00;99.90;;;;;;5071683;28;20437;-50
2023/11/29 05:14:13;;;;;;;15.33;5.63;;;1.10;99.90;;;;;;5071213;28;20036;-50
2023/11/29 05:16:39;;;;;;;15.90;5.83;;;1.10;99.90;;;;;;5071375;28;20024;-55
2023/11/29 05:19:05;;;;;;;14.87;5.60;;;1.10;99.90;;;;;;5058634;28;20421;-53
2023/11/29 05:21:32;;;;;;;15.33;6.73;;;1.00;99.90;;;;;;5061346;28;20531;-50
2023/11/29 05:23:58;;;;;;;18.50;6.63;;;1.10;99.90;;;;;;5062924;28;20101;-55
2023/11/29 05:26:24;;;;;;;14.13;5.53;;;1.10;99.90;;;;;;5064691;28;20466;-51
2023/11/29 05:28:50;;;;;;;14.40;5.53;;;1.10;99.90;;;;;;5066369;28;20028;-55
2023/11/29 05:31:17;;;;;;;15.87;5.30;;;1.10;99.90;;;;;;5057380;28;20161;-54
2023/11/29 05:33:43;;;;;;;13.87;5.00;;;1.10;99.90;;;;;;5070740;28;20028;-55
2023/11/29 05:36:09;;;;;;;17.20;5.50;;;1.10;99.90;;;;;;5057933;28;20017;-51
2023/11/29 05:38:35;;;;;;;13.70;4.90;;;1.10;99.90;;;;;;5050703;28;20037;-54
2023/11/29 05:41:01;;;;;;;13.20;5.43;;;1.20;99.90;;;;;;5051606;28;20040;-53
2023/11/29 05:43:26;;;;;;;16.67;6.10;;;1.20;99.90;;;;;;5051445;28;20040;-52
2023/11/29 05:45:52;;;;;;;13.83;5.40;;;1.30;99.90;;;;;;5061942;28;20025;-50
2023/11/29 05:48:18;;;;;;;16.90;6.00;;;1.30;99.90;;;;;;5070827;28;20076;-52
2023/11/29 05:50:44;;;;;;;16.87;5.50;;;1.30;99.90;;;;;;5069575;28;20025;-53
2023/11/29 05:53:09;;;;;;;17.20;6.47;;;1.30;99.90;;;;;;5050709;28;20117;-51
2023/11/29 05:55:35;;;;;;;20.47;7.17;;;1.40;99.90;;;;;;5049373;28;20028;-52
2023/11/29 05:58:03;;;;;;;18.37;7.10;;;1.40;99.90;;;;;;5050611;28;20025;-51
2023/11/29 06:00:29;;;;;;;19.47;6.27;;;1.30;99.90;;;;;;5050942;28;20128;-55
2023/11/29 06:02:55;;;;;;;17.47;6.57;;;1.40;99.90;;;;;;5069615;28;20067;-52
2023/11/29 06:05:20;;;;;;;14.77;6.40;;;1.40;99.90;;;;;;5064507;28;20053;-55
2023/11/29 06:07:47;;;;;;;16.80;6.83;;;1.40;99.90;;;;;;5068625;28;20052;-54
2023/11/29 06:10:13;;;;;;;15.20;6.07;;;1.40;99.90;;;;;;5057461;28;20033;-54
2023/11/29 06:12:38;;;;;;;18.23;6.63;;;1.40;99.90;;;;;;5050674;28;20039;-54
2023/11/29 06:15:04;;;;;;;16.53;6.07;;;1.50;99.90;;;;;;5050821;28;20021;-53
2023/11/29 06:17:31;;;;;;;13.87;6.17;;;1.60;99.90;;;;;;5050734;28;20154;-51
2023/11/29 06:19:57;;;;;;;15.70;6.57;;;1.70;99.90;;;;;;5050538;28;20083;-54
2023/11/29 06:22:23;;;;;;;21.70;7.70;;;1.70;99.90;;;;;;5057006;28;20045;-54
2023/11/29 06:24:48;;;;;;;17.57;6.87;;;1.80;99.90;;;;;;5070613;28;20082;-52
2023/11/29 06:27:16;;;;;;;15.73;5.63;;;1.80;99.90;;;;;;5065640;28;20136;-51
2023/11/29 06:29:42;;;;;;;16.10;6.53;;;1.90;99.90;;;;;;5067230;28;20029;-53
2023/11/29 06:32:07;;;;;;;17.90;5.53;;;2.00;99.90;;;;;;5070418;28;20047;-53
2023/11/29 06:34:33;;;;;;;15.37;6.23;;;2.00;99.90;;;;;;5066267;28;20120;-54
2023/11/29 06:36:58;;;;;;;17.00;5.80;;;2.00;99.90;;;;;;5051024;28;20120;-53
2023/11/29 06:39:24;;;;;;;13.13;5.13;;;2.10;99.90;;;;;;5050260;28;20033;-52
2023/11/29 06:41:50;;;;;;;14.63;5.17;;;2.20;99.90;;;;;;5051857;28;20063;-50
2023/11/29 06:44:15;;;;;;;16.30;6.30;;;2.10;99.90;;;;;;5070089;28;20035;-50
2023/11/29 06:46:41;;;;;;;13.33;6.10;;;2.10;99.90;;;;;;5069326;28;20031;-48
2023/11/29 06:49:11;;;;;;;23.07;7.87;;;2.10;99.90;;;;;;5061330;28;20040;-54
2023/11/29 06:51:38;;;;;;;15.87;5.87;;;2.10;99.90;;;;;;5069044;28;20441;-53
2023/11/29 06:54:04;;;;;;;13.10;5.13;;;2.10;99.90;;;;;;5059652;28;20041;-50
2023/11/29 06:56:30;;;;;;;20.33;6.23;;;2.10;99.90;;;;;;5054707;28;20036;-52
2023/11/29 06:58:55;;;;;;;14.40;5.40;;;2.10;99.90;;;;;;5066745;28;20033;-54
2023/11/29 07:01:21;;;;;;;19.13;4.73;;;2.20;99.90;;;;;;5069892;28;20035;-54
2023/11/29 07:03:46;;;;;;;15.37;5.87;;;2.20;99.90;;;;;;5069081;28;20123;-53
2023/11/29 07:06:26;;;;;;;13.20;5.23;;;2.30;99.90;;;;;;5068548;28;20029;-53
2023/11/29 07:08:51;;;;;;;17.50;5.85;;;2.20;99.90;;;;;;5059889;28;20028;-54
2023/11/29 07:11:17;;;;;;;15.27;5.20;;;2.20;99.90;;;;;;5054921;28;20027;-54
2023/11/29 07:13:43;;;;;;;17.13;6.07;;;2.20;99.90;;;;;;5069450;28;20108;-53
2023/11/29 07:16:09;;;;;;;20.00;6.27;;;2.20;99.90;;;;;;5068697;28;20032;-51
2023/11/29 07:18:35;;;;;;;14.20;5.83;;;2.30;99.90;;;;;;5069604;28;20031;-54
2023/11/29 07:21:01;;;;;;;19.20;6.20;;;2.30;99.90;;;;;;5058801;28;20508;-54
2023/11/29 07:23:27;;;;;;;14.87;5.83;;;2.30;99.90;;;;;;5064028;28;20032;-54
2023/11/29 07:25:52;;;;;;;15.80;6.23;;;2.30;99.90;;;;;;5068165;28;20441;-54
2023/11/29 07:28:18;;;;;;;13.87;5.27;;;2.30;99.90;;;;;;5049382;28;20025;-51
2023/11/29 07:30:44;;;;;;;12.27;4.73;;;2.40;99.90;;;;;;5049270;28;20106;-53
2023/11/29 07:33:10;;;;;;;10.27;4.70;;;2.40;99.90;;;;;;5061358;28;20036;-54
2023/11/29 07:35:35;;;;;;;13.83;5.40;;;2.30;99.90;;;;;;5069409;28;20415;-54
2023/11/29 07:38:01;;;;;;;12.67;4.97;;;2.40;99.90;;;;;;5069151;28;20055;-49
2023/11/29 07:40:27;;;;;;;10.00;4.67;;;2.40;99.90;;;;;;5063414;28;20109;-50
2023/11/29 07:42:52;;;;;;;11.03;4.87;;;2.40;99.90;;;;;;5057414;28;20029;-55
2023/11/29 07:45:18;;;;;;;11.83;5.17;;;2.50;99.90;;;;;;5049140;28;20029;-52
2023/11/29 07:47:44;;;;;;;16.63;5.47;;;2.50;99.90;;;;;;5049033;28;20025;-54
2023/11/29 07:50:13;;;;;;;13.27;4.63;;;2.40;99.90;;;;;;5049204;28;20029;-52
2023/11/29 07:52:39;;;;;;;17.40;5.65;;;2.50;99.90;;;;;;5056679;28;20384;-54
2023/11/29 07:55:07;;;;;;;15.30;5.80;;;2.50;99.90;;;;;;5056074;28;20129;-50
2023/11/29 07:57:33;;;;;;;13.23;5.30;;;2.50;99.90;;;;;;5066539;28;20028;-52
2023/11/29 07:59:58;;;;;;;13.73;5.30;;;2.50;99.90;;;;;;5058332;28;20029;-50
2023/11/29 08:02:24;;;;;;;14.60;5.37;;;2.60;99.90;;;;;;5050779;28;20430;-50
2023/11/29 08:04:49;;;;;;;13.03;5.10;;;2.60;99.90;;;;;;5054532;28;20044;-54
2023/11/29 08:07:15;;;;;;;11.77;4.70;;;2.60;99.90;;;;;;5072317;28;20025;-51
2023/11/29 08:09:44;;;;;;;9.33;4.70;;;2.60;99.90;;;;;;5057530;28;20028;-53
2023/11/29 08:12:11;;;;;;;10.30;4.67;;;2.60;99.90;;;;;;5069760;28;20017;-53
2023/11/29 08:14:36;;;;;;;10.60;4.37;;;2.70;99.90;;;;;;5061202;28;20136;-53
2023/11/29 08:17:03;;;;;;;12.50;5.83;;;2.80;99.90;;;;;;5052749;28;20502;-51
2023/11/29 08:19:28;;;;;;;10.67;3.83;;;2.90;99.90;;;;;;5051434;28;20060;-54
2023/11/29 08:21:54;;;;;;;11.73;4.43;;;2.90;99.90;;;;;;5053837;28;20071;-53
2023/11/29 08:24:20;;;;;;;10.07;4.10;;;2.90;99.90;;;;;;5059908;28;20067;-52
2023/11/29 08:26:46;;;;;;;12.47;4.90;;;2.90;99.90;;;;;;5052318;28;20074;-53
2023/11/29 08:29:12;;;;;;;14.93;7.07;;;2.80;99.90;;;;;;5052309;28;20032;-54
2023/11/29 08:31:37;;;;;;;17.37;7.73;;;2.70;99.90;;;;;;5052567;28;20096;-52
2023/11/29 08:34:03;;;;;;;8.17;4.20;;;2.70;99.90;;;;;;5060249;28;20388;-50
2023/11/29 08:36:29;;;;;;;7.37;4.80;;;2.70;99.90;;;;;;5052333;28;20086;-50
2023/11/29 08:38:55;;;;;;;9.43;3.73;;;2.70;99.90;;;;;;5083513;22;20041;-49
2023/11/29 08:41:21;;;;;;;9.57;4.30;;;2.70;99.90;;;;;;5072539;28;20036;-50
2023/11/29 08:43:47;;;;;;;8.73;4.20;;;2.70;99.90;;;;;;5072225;28;20021;-50
2023/11/29 08:46:13;;;;;;;8.60;4.30;;;2.90;99.90;;;;;;5072408;28;20052;-52
2023/11/29 08:48:39;;;;;;;8.00;4.30;;;3.00;99.90;;;;;;5072021;28;20025;-49
2023/11/29 08:51:06;;;;;;;12.57;5.10;;;3.00;99.90;;;;;;5072237;28;20032;-49
2023/11/29 08:53:32;;;;;;;7.27;3.87;;;3.10;99.90;;;;;;5072620;28;20411;-49
2023/11/29 08:55:57;;;;;;;11.83;4.23;;;3.10;99.90;;;;;;5072480;28;20222;-49
2023/11/29 08:58:24;;;;;;;11.17;4.60;;;3.10;99.90;;;;;;5072064;28;20090;-49
2023/11/29 09:00:50;;;;;;;12.37;5.37;;;3.10;99.90;;;;;;5072224;28;20095;-49
2023/11/29 09:03:17;;;;;;;11.13;3.53;;;3.10;99.90;;;;;;5072165;28;20063;-50
2023/11/29 09:05:43;;;;;;;8.80;3.70;;;3.20;99.90;;;;;;5072270;28;20024;-49
2023/11/29 09:08:09;;;;;;;8.17;3.43;;;3.10;99.90;;;;;;5071818;28;20036;-50
2023/11/29 09:10:37;;;;;;;4.93;2.83;;;3.10;99.90;;;;;;5072069;28;20102;-50
2023/11/29 09:13:05;;;;;;;6.43;3.50;;;3.10;99.90;;;;;;5071257;28;20040;-51
2023/11/29 09:15:33;;;;;;;6.27;3.33;;;3.00;99.90;;;;;;5070144;28;20024;-49
2023/11/29 09:18:00;;;;;;;8.53;3.83;;;3.00;99.90;;;;;;5071459;28;20032;-53
2023/11/29 09:20:25;;;;;;;6.50;3.60;;;3.00;99.90;;;;;;5071702;28;20108;-52
2023/11/29 09:22:51;;;;;;;7.57;3.83;;;3.00;99.90;;;;;;5069726;28;20446;-50
2023/11/29 09:25:17;;;;;;;7.90;4.00;;;3.00;99.90;;;;;;5071160;28;20069;-50
2023/11/29 09:27:43;;;;;;;8.80;3.83;;;3.10;99.90;;;;;;5071322;28;20081;-52
2023/11/29 09:30:10;;;;;;;5.07;2.70;;;3.10;99.90;;;;;;5071832;28;20033;-52
2023/11/29 09:32:35;;;;;;;7.47;3.13;;;3.00;99.90;;;;;;5073131;28;20096;-52
2023/11/29 09:35:04;;;;;;;9.00;2.90;;;3.00;99.90;;;;;;5071695;28;20707;-53
2023/11/29 09:37:30;;;;;;;8.27;3.53;;;3.00;99.90;;;;;;5073149;28;20078;-53
2023/11/29 09:39:57;;;;;;;6.47;3.43;;;3.00;99.90;;;;;;5073006;28;20032;-49
2023/11/29 09:42:24;;;;;;;6.70;3.43;;;3.00;99.90;;;;;;5073030;28;20110;-50
2023/11/29 09:44:53;;;;;;;5.80;3.57;;;3.00;99.90;;;;;;5072336;28;20058;-53
2023/11/29 09:47:23;;;;;;;6.57;3.90;;;3.00;99.90;;;;;;5073041;28;20485;-48
2023/11/29 09:49:50;;;;;;;6.73;3.47;;;3.00;99.90;;;;;;5072871;28;20048;-51
2023/11/29 09:52:17;;;;;;;8.33;4.00;;;3.00;99.90;;;;;;5071453;28;20499;-47
2023/11/29 09:54:42;;;;;;;6.33;3.30;;;3.00;99.90;;;;;;5073245;28;20032;-55
2023/11/29 09:57:08;;;;;;;7.03;3.70;;;3.00;99.90;;;;;;5073077;28;20040;-54
2023/11/29 09:59:34;;;;;;;5.57;3.30;;;3.00;99.90;;;;;;5072469;28;20130;-55
2023/11/29 10:02:03;;;;;;;6.17;3.60;;;3.10;99.90;;;;;;5072853;28;20036;-52
2023/11/29 10:04:35;;;;;;;9.40;3.67;;;3.00;99.90;;;;;;5072617;28;20412;-50
2023/11/29 10:07:01;;;;;;;7.73;3.93;;;3.10;99.90;;;;;;5072826;28;20523;-55
2023/11/29 10:09:26;;;;;;;6.13;3.40;;;3.00;99.90;;;;;;5072565;28;20074;-53
2023/11/29 10:11:53;;;;;;;8.20;4.07;;;3.10;99.90;;;;;;5072794;28;20028;-53
2023/11/29 10:14:20;;;;;;;6.63;3.47;;;3.20;99.90;;;;;;5072249;28;20107;-52
2023/11/29 10:16:48;;;;;;;7.77;3.80;;;3.20;99.90;;;;;;5072918;28;20048;-52
2023/11/29 10:19:16;;;;;;;6.67;3.70;;;3.20;99.90;;;;;;5070957;28;20037;-52
2023/11/29 10:21:43;;;;;;;6.93;3.13;;;3.40;99.90;;;;;;5072265;28;20036;-53
2023/11/29 10:24:09;;;;;;;6.90;3.80;;;3.50;99.90;;;;;;5072163;28;20067;-53
2023/11/29 10:26:34;;;;;;;5.60;3.27;;;3.60;99.90;;;;;;5072153;28;20028;-53
2023/11/29 10:29:00;;;;;;;7.07;3.37;;;3.60;99.90;;;;;;5072064;28;20028;-53
2023/11/29 10:31:27;;;;;;;6.60;3.70;;;3.60;99.90;;;;;;5070809;28;20024;-52
2023/11/29 10:33:54;;;;;;;9.60;3.30;;;3.60;99.90;;;;;;5072062;28;20035;-53
2023/11/29 10:36:20;;;;;;;6.73;3.83;;;3.60;99.90;;;;;;5072139;28;20125;-51
2023/11/29 10:38:59;;;;;;;7.97;3.53;;;3.50;99.90;;;;;;5072093;28;20072;-54
2023/11/29 10:41:26;;;;;;;6.22;3.28;;;3.50;99.90;;;;;;5072230;28;20370;-51
2023/11/29 10:43:55;;;;;;;6.73;3.50;;;3.50;99.90;;;;;;5071874;28;20098;-54
2023/11/29 10:46:25;;;;;;;5.38;2.80;;;3.50;99.90;;;;;;5072465;28;20401;-52
2023/11/29 10:49:14;;;;;;;6.93;3.00;;;3.50;99.90;;;;;;5072130;28;20058;-52
2023/11/29 10:51:42;;;;;;;15.13;4.22;;;3.50;99.90;;;;;;5071819;28;20036;-53
2023/11/29 10:54:09;;;;;;;7.10;3.73;;;3.40;99.90;;;;;;5071690;28;20036;-52
2023/11/29 10:56:35;;;;;;;9.57;3.87;;;3.20;99.90;;;;;;5070531;28;20029;-54
2023/11/29 10:59:10;;;;;;;7.03;3.37;;;3.10;99.90;;;;;;5071626;28;20424;-50
2023/11/29 11:01:36;;;;;;;6.73;2.93;;;3.10;99.90;;;;;;5071790;28;20036;-50
2023/11/29 11:04:08;;;;;;;5.87;2.73;;;3.10;99.90;;;;;;5071442;28;20116;-52
2023/11/29 11:06:35;;;;;;;6.27;2.97;;;3.00;99.90;;;;;;5071827;28;20036;-50
2023/11/29 11:09:02;;;;;;;4.73;2.57;;;3.00;99.90;;;;;;5071714;28;20103;-50
2023/11/29 11:11:44;;;;;;;6.40;2.27;;;3.00;99.90;;;;;;5071966;28;20044;-52
2023/11/29 11:14:14;;;;;;;6.80;2.50;;;3.20;99.90;;;;;;5071585;28;20060;-51
2023/11/29 11:17:01;;;;;;;5.03;2.57;;;3.20;99.90;;;;;;5071575;28;20032;-50
2023/11/29 11:19:34;;;;;;;4.90;2.30;;;3.20;99.90;;;;;;5071397;28;20439;-51
2023/11/29 11:22:09;;;;;;;5.07;2.53;;;3.20;99.90;;;;;;5071508;28;20476;-52
2023/11/29 11:24:53;;;;;;;4.23;2.37;;;3.30;99.90;;;;;;5071382;28;20032;-50
2023/11/29 11:27:30;;;;;;;8.53;2.53;;;3.40;99.90;;;;;;5071575;28;20531;-51
2023/11/29 11:29:56;;;;;;;4.93;2.30;;;3.40;99.90;;;;;;5071306;28;20111;-55
2023/11/29 11:32:37;;;;;;;3.50;1.80;;;3.40;99.90;;;;;;5071378;28;20060;-54
2023/11/29 11:37:45;;;;;;;6.57;2.43;;;3.50;99.90;;;;;;5073396;28;20040;-53
2023/11/29 11:40:11;;;;;;;6.30;2.07;;;3.40;99.90;;;;;;5075087;28;20089;-51
2023/11/29 11:42:37;;;;;;;8.17;2.47;;;3.40;99.90;;;;;;5075157;28;20051;-50
2023/11/29 11:45:04;;;;;;;5.83;2.10;;;3.50;99.90;;;;;;5073769;28;20493;-51
2023/11/29 11:47:30;;;;;;;3.40;2.00;;;3.50;99.90;;;;;;5075089;28;20481;-53
2023/11/29 11:49:56;;;;;;;6.53;1.90;;;3.60;99.90;;;;;;5075035;28;20493;-53
2023/11/29 11:52:22;;;;;;;5.13;2.10;;;3.60;99.90;;;;;;5074967;28;20060;-54
2023/11/29 11:54:48;;;;;;;4.67;2.17;;;3.60;99.90;;;;;;5074840;28;20064;-53
2023/11/29 11:57:15;;;;;;;7.67;2.30;;;3.70;99.90;;;;;;5074901;28;20237;-54
2023/11/29 11:59:41;;;;;;;3.93;2.00;;;3.70;99.90;;;;;;5074566;28;20397;-53
2023/11/29 12:02:07;;;;;;;4.73;2.37;;;3.90;99.90;;;;;;5074816;28;20035;-50
2023/11/29 12:04:34;;;;;;;3.63;2.33;;;4.00;99.90;;;;;;5074929;28;20028;-52
2023/11/29 12:07:00;;;;;;;5.20;2.47;;;4.10;99.90;;;;;;5074746;28;20078;-54
2023/11/29 12:09:27;;;;;;;4.33;2.33;;;4.10;99.90;;;;;;5074711;28;20028;-51
2023/11/29 12:12:12;;;;;;;3.37;2.30;;;4.20;99.90;;;;;;5074701;28;20040;-52
2023/11/29 12:14:45;;;;;;;3.47;1.90;;;4.10;99.90;;;;;;5074343;28;20082;-51
2023/11/29 12:17:12;;;;;;;4.23;2.07;;;4.10;99.90;;;;;;5074653;28;20033;-54
2023/11/29 12:19:41;;;;;;;7.00;2.57;;;4.10;99.90;;;;;;5074288;28;20024;-54
2023/11/29 12:22:06;;;;;;;5.03;2.35;;;4.10;99.90;;;;;;5074457;28;20432;-52
2023/11/29 12:24:38;;;;;;;6.63;1.97;;;4.10;99.90;;;;;;5074085;28;20041;-53
2023/11/29 12:27:07;;;;;;;4.30;2.23;;;4.10;99.90;;;;;;5074418;28;20033;-54
2023/11/29 12:29:36;;;;;;;5.27;2.50;;;4.00;99.90;;;;;;5074028;28;20603;-51
2023/11/29 12:32:03;;;;;;;6.80;2.70;;;4.00;99.90;;;;;;5074354;28;20478;-55
2023/11/29 12:34:29;;;;;;;4.13;2.20;;;3.90;99.90;;;;;;5074168;28;20032;-51
2023/11/29 12:37:00;;;;;;;7.70;2.83;;;3.80;99.90;;;;;;5074136;28;20043;-54
2023/11/29 12:39:33;;;;;;;6.23;2.67;;;3.70;99.90;;;;;;5074012;28;20082;-52
2023/11/29 12:41:59;;;;;;;5.97;2.53;;;3.70;99.90;;;;;;5074441;28;20540;-54
2023/11/29 12:44:25;;;;;;;8.40;3.47;;;3.70;99.90;;;;;;5073783;28;20040;-52
2023/11/29 12:46:51;;;;;;;4.73;2.43;;;3.60;99.90;;;;;;5073853;28;20095;-53
2023/11/29 12:49:17;;;;;;;5.17;2.13;;;3.70;99.90;;;;;;5072883;28;20035;-51
2023/11/29 12:51:44;;;;;;;3.90;1.90;;;3.70;99.90;;;;;;5073847;28;20029;-55
2023/11/29 12:54:10;;;;;;;8.43;2.53;;;3.70;99.90;;;;;;5074025;28;20033;-51